sensor_id;sensor_type;location;lat;lon;timestamp;P1;durP1;ratioP1;P2;durP2;ratioP2
48052;SDS011;33824;51.600;5.718;2023-12-20T00:02:17;0.35;;;0.35;;
48052;SDS011;33824;51.600;5.718;2023-12-20T00:04:43;0.57;;;0.57;;
48052;SDS011;33824;51.600;5.718;2023-12-20T00:07:09;0.35;;;0.35;;
48052;SDS011;33824;51.600;5.718;2023-12-20T00:09:34;1.00;;;0.90;;
48052;SDS011;33824;51.600;5.718;2023-12-20T00:12:00;0.43;;;0.35;;
48052;SDS011;33824;51.600;5.718;2023-12-20T00:14:25;1.27;;;0.60;;
48052;SDS011;33824;51.600;5.718;2023-12-20T00:16:51;1.88;;;1.65;;
48052;SDS011;33824;51.600;5.718;2023-12-20T00:19:16;2.80;;;0.88;;
48052;SDS011;33824;51.600;5.718;2023-12-20T00:21:42;1.17;;;0.80;;
48052;SDS011;33824;51.600;5.718;2023-12-20T00:24:08;3.05;;;1.05;;
48052;SDS011;33824;51.600;5.718;2023-12-20T00:26:33;5.63;;;1.67;;
48052;SDS011;33824;51.600;5.718;2023-12-20T00:28:59;0.55;;;0.45;;
48052;SDS011;33824;51.600;5.718;2023-12-20T00:31:25;0.40;;;0.40;;
48052;SDS011;33824;51.600;5.718;2023-12-20T00:33:50;0.10;;;0.10;;
48052;SDS011;33824;51.600;5.718;2023-12-20T00:36:16;1.13;;;0.57;;
48052;SDS011;33824;51.600;5.718;2023-12-20T00:38:41;6.22;;;1.65;;
48052;SDS011;33824;51.600;5.718;2023-12-20T00:41:07;0.90;;;0.70;;
48052;SDS011;33824;51.600;5.718;2023-12-20T00:43:32;0.15;;;0.15;;
48052;SDS011;33824;51.600;5.718;2023-12-20T00:45:58;1.35;;;1.05;;
48052;SDS011;33824;51.600;5.718;2023-12-20T00:48:25;0.90;;;0.80;;
48052;SDS011;33824;51.600;5.718;2023-12-20T00:50:52;2.38;;;0.95;;
48052;SDS011;33824;51.600;5.718;2023-12-20T00:53:18;0.32;;;0.32;;
48052;SDS011;33824;51.600;5.718;2023-12-20T00:55:44;0.60;;;0.60;;
48052;SDS011;33824;51.600;5.718;2023-12-20T00:58:10;0.20;;;0.20;;
48052;SDS011;33824;51.600;5.718;2023-12-20T01:00:36;0.55;;;0.55;;
48052;SDS011;33824;51.600;5.718;2023-12-20T01:03:01;0.17;;;0.17;;
48052;SDS011;33824;51.600;5.718;2023-12-20T01:05:27;0.57;;;0.57;;
48052;SDS011;33824;51.600;5.718;2023-12-20T01:07:53;0.55;;;0.55;;
48052;SDS011;33824;51.600;5.718;2023-12-20T01:10:18;0.57;;;0.57;;
48052;SDS011;33824;51.600;5.718;2023-12-20T01:12:44;0.30;;;0.30;;
48052;SDS011;33824;51.600;5.718;2023-12-20T01:15:09;0.32;;;0.32;;
48052;SDS011;33824;51.600;5.718;2023-12-20T01:17:35;6.97;;;1.08;;
48052;SDS011;33824;51.600;5.718;2023-12-20T01:20:01;0.20;;;0.20;;
48052;SDS011;33824;51.600;5.718;2023-12-20T01:22:26;0.30;;;0.30;;
48052;SDS011;33824;51.600;5.718;2023-12-20T01:24:52;0.43;;;0.43;;
48052;SDS011;33824;51.600;5.718;2023-12-20T01:27:17;0.10;;;0.10;;
48052;SDS011;33824;51.600;5.718;2023-12-20T01:29:44;0.28;;;0.28;;
48052;SDS011;33824;51.600;5.718;2023-12-20T01:32:09;0.38;;;0.25;;
48052;SDS011;33824;51.600;5.718;2023-12-20T01:34:35;0.30;;;0.30;;
48052;SDS011;33824;51.600;5.718;2023-12-20T01:37:01;11.55;;;0.90;;
48052;SDS011;33824;51.600;5.718;2023-12-20T01:39:27;17.83;;;0.65;;
48052;SDS011;33824;51.600;5.718;2023-12-20T01:41:52;1.58;;;0.30;;
48052;SDS011;33824;51.600;5.718;2023-12-20T01:44:18;1.38;;;0.45;;
48052;SDS011;33824;51.600;5.718;2023-12-20T01:46:43;2.55;;;0.73;;
48052;SDS011;33824;51.600;5.718;2023-12-20T01:49:09;1.98;;;0.60;;
48052;SDS011;33824;51.600;5.718;2023-12-20T01:51:34;10.23;;;0.50;;
48052;SDS011;33824;51.600;5.718;2023-12-20T01:54:01;0.10;;;0.10;;
48052;SDS011;33824;51.600;5.718;2023-12-20T01:56:26;0.20;;;0.20;;
48052;SDS011;33824;51.600;5.718;2023-12-20T01:58:54;1.67;;;0.28;;
48052;SDS011;33824;51.600;5.718;2023-12-20T02:01:21;1.45;;;1.35;;
48052;SDS011;33824;51.600;5.718;2023-12-20T02:03:46;1.08;;;0.55;;
48052;SDS011;33824;51.600;5.718;2023-12-20T02:06:12;1.23;;;0.43;;
48052;SDS011;33824;51.600;5.718;2023-12-20T02:08:38;0.50;;;0.50;;
48052;SDS011;33824;51.600;5.718;2023-12-20T02:11:04;0.10;;;0.10;;
48052;SDS011;33824;51.600;5.718;2023-12-20T02:13:30;1.88;;;1.23;;
48052;SDS011;33824;51.600;5.718;2023-12-20T02:15:56;0.82;;;0.13;;
48052;SDS011;33824;51.600;5.718;2023-12-20T02:18:22;1.80;;;1.17;;
48052;SDS011;33824;51.600;5.718;2023-12-20T02:20:47;0.82;;;0.82;;
48052;SDS011;33824;51.600;5.718;2023-12-20T02:23:13;0.20;;;0.20;;
48052;SDS011;33824;51.600;5.718;2023-12-20T02:25:38;0.30;;;0.30;;
48052;SDS011;33824;51.600;5.718;2023-12-20T02:28:04;0.20;;;0.20;;
48052;SDS011;33824;51.600;5.718;2023-12-20T02:30:31;0.52;;;0.52;;
48052;SDS011;33824;51.600;5.718;2023-12-20T02:32:56;0.10;;;0.10;;
48052;SDS011;33824;51.600;5.718;2023-12-20T02:35:22;1.67;;;0.80;;
48052;SDS011;33824;51.600;5.718;2023-12-20T02:37:48;0.73;;;0.73;;
48052;SDS011;33824;51.600;5.718;2023-12-20T02:40:13;1.17;;;0.98;;
48052;SDS011;33824;51.600;5.718;2023-12-20T02:42:39;1.45;;;0.57;;
48052;SDS011;33824;51.600;5.718;2023-12-20T02:45:04;0.30;;;0.30;;
48052;SDS011;33824;51.600;5.718;2023-12-20T02:47:30;0.60;;;0.60;;
48052;SDS011;33824;51.600;5.718;2023-12-20T02:49:56;0.38;;;0.38;;
48052;SDS011;33824;51.600;5.718;2023-12-20T02:52:23;2.55;;;1.70;;
48052;SDS011;33824;51.600;5.718;2023-12-20T02:54:49;0.73;;;0.40;;
48052;SDS011;33824;51.600;5.718;2023-12-20T02:57:14;0.68;;;0.68;;
48052;SDS011;33824;51.600;5.718;2023-12-20T02:59:40;5.40;;;1.05;;
48052;SDS011;33824;51.600;5.718;2023-12-20T03:02:05;0.20;;;0.20;;
48052;SDS011;33824;51.600;5.718;2023-12-20T03:04:31;0.10;;;0.10;;
48052;SDS011;33824;51.600;5.718;2023-12-20T03:06:56;0.32;;;0.17;;
48052;SDS011;33824;51.600;5.718;2023-12-20T03:09:22;0.35;;;0.35;;
48052;SDS011;33824;51.600;5.718;2023-12-20T03:11:48;0.73;;;0.73;;
48052;SDS011;33824;51.600;5.718;2023-12-20T03:14:14;0.15;;;0.15;;
48052;SDS011;33824;51.600;5.718;2023-12-20T03:16:40;0.10;;;0.10;;
48052;SDS011;33824;51.600;5.718;2023-12-20T03:19:05;0.30;;;0.30;;
48052;SDS011;33824;51.600;5.718;2023-12-20T03:21:31;1.95;;;0.52;;
48052;SDS011;33824;51.600;5.718;2023-12-20T03:23:56;1.33;;;1.13;;
48052;SDS011;33824;51.600;5.718;2023-12-20T03:26:22;5.40;;;0.95;;
48052;SDS011;33824;51.600;5.718;2023-12-20T03:28:48;0.32;;;0.32;;
48052;SDS011;33824;51.600;5.718;2023-12-20T03:31:14;15.85;;;0.73;;
48052;SDS011;33824;51.600;5.718;2023-12-20T03:33:39;0.10;;;0.10;;
48052;SDS011;33824;51.600;5.718;2023-12-20T03:36:05;0.20;;;0.20;;
48052;SDS011;33824;51.600;5.718;2023-12-20T03:38:31;2.45;;;1.17;;
48052;SDS011;33824;51.600;5.718;2023-12-20T03:40:57;4.07;;;1.75;;
48052;SDS011;33824;51.600;5.718;2023-12-20T03:43:22;10.00;;;0.65;;
48052;SDS011;33824;51.600;5.718;2023-12-20T03:45:48;11.68;;;0.40;;
48052;SDS011;33824;51.600;5.718;2023-12-20T03:48:13;1.15;;;0.85;;
48052;SDS011;33824;51.600;5.718;2023-12-20T03:50:39;0.15;;;0.15;;
48052;SDS011;33824;51.600;5.718;2023-12-20T03:53:04;0.68;;;0.45;;
48052;SDS011;33824;51.600;5.718;2023-12-20T03:55:30;0.10;;;0.10;;
48052;SDS011;33824;51.600;5.718;2023-12-20T03:57:55;0.65;;;0.60;;
48052;SDS011;33824;51.600;5.718;2023-12-20T04:00:23;0.10;;;0.10;;
48052;SDS011;33824;51.600;5.718;2023-12-20T04:02:49;1.70;;;0.52;;
48052;SDS011;33824;51.600;5.718;2023-12-20T04:05:14;0.20;;;0.20;;
48052;SDS011;33824;51.600;5.718;2023-12-20T04:07:40;0.65;;;0.35;;
48052;SDS011;33824;51.600;5.718;2023-12-20T04:10:05;0.20;;;0.20;;
48052;SDS011;33824;51.600;5.718;2023-12-20T04:12:32;0.57;;;0.28;;
48052;SDS011;33824;51.600;5.718;2023-12-20T04:14:58;0.28;;;0.28;;
48052;SDS011;33824;51.600;5.718;2023-12-20T04:17:23;0.80;;;0.80;;
48052;SDS011;33824;51.600;5.718;2023-12-20T04:19:49;0.35;;;0.35;;
48052;SDS011;33824;51.600;5.718;2023-12-20T04:22:15;3.90;;;0.43;;
48052;SDS011;33824;51.600;5.718;2023-12-20T04:24:41;0.45;;;0.45;;
48052;SDS011;33824;51.600;5.718;2023-12-20T04:27:09;3.63;;;0.40;;
48052;SDS011;33824;51.600;5.718;2023-12-20T04:29:35;0.30;;;0.30;;
48052;SDS011;33824;51.600;5.718;2023-12-20T04:32:01;0.22;;;0.22;;
48052;SDS011;33824;51.600;5.718;2023-12-20T04:34:27;4.47;;;1.20;;
48052;SDS011;33824;51.600;5.718;2023-12-20T04:36:52;0.38;;;0.38;;
48052;SDS011;33824;51.600;5.718;2023-12-20T04:39:19;1.88;;;0.73;;
48052;SDS011;33824;51.600;5.718;2023-12-20T04:41:44;0.38;;;0.38;;
48052;SDS011;33824;51.600;5.718;2023-12-20T04:44:10;0.20;;;0.20;;
48052;SDS011;33824;51.600;5.718;2023-12-20T04:46:35;2.50;;;1.63;;
48052;SDS011;33824;51.600;5.718;2023-12-20T04:49:01;1.35;;;0.52;;
48052;SDS011;33824;51.600;5.718;2023-12-20T04:51:27;0.10;;;0.10;;
48052;SDS011;33824;51.600;5.718;2023-12-20T04:53:53;0.52;;;0.52;;
48052;SDS011;33824;51.600;5.718;2023-12-20T04:56:18;4.25;;;1.63;;
48052;SDS011;33824;51.600;5.718;2023-12-20T04:58:44;1.75;;;0.82;;
48052;SDS011;33824;51.600;5.718;2023-12-20T05:01:10;2.80;;;0.50;;
48052;SDS011;33824;51.600;5.718;2023-12-20T05:03:35;0.20;;;0.20;;
48052;SDS011;33824;51.600;5.718;2023-12-20T05:06:01;0.30;;;0.30;;
48052;SDS011;33824;51.600;5.718;2023-12-20T05:08:27;0.52;;;0.43;;
48052;SDS011;33824;51.600;5.718;2023-12-20T05:10:53;0.47;;;0.47;;
48052;SDS011;33824;51.600;5.718;2023-12-20T05:13:20;0.20;;;0.20;;
48052;SDS011;33824;51.600;5.718;2023-12-20T05:15:45;0.30;;;0.30;;
48052;SDS011;33824;51.600;5.718;2023-12-20T05:18:12;0.95;;;0.95;;
48052;SDS011;33824;51.600;5.718;2023-12-20T05:20:38;14.93;;;1.85;;
48052;SDS011;33824;51.600;5.718;2023-12-20T05:23:04;0.20;;;0.20;;
48052;SDS011;33824;51.600;5.718;2023-12-20T05:25:29;6.78;;;0.75;;
48052;SDS011;33824;51.600;5.718;2023-12-20T05:27:55;1.08;;;0.38;;
48052;SDS011;33824;51.600;5.718;2023-12-20T05:30:21;6.05;;;1.75;;
48052;SDS011;33824;51.600;5.718;2023-12-20T05:32:47;18.23;;;2.25;;
48052;SDS011;33824;51.600;5.718;2023-12-20T05:35:12;21.42;;;3.25;;
48052;SDS011;33824;51.600;5.718;2023-12-20T05:37:38;21.75;;;2.42;;
48052;SDS011;33824;51.600;5.718;2023-12-20T05:40:04;22.25;;;2.67;;
48052;SDS011;33824;51.600;5.718;2023-12-20T05:42:30;22.70;;;2.95;;
48052;SDS011;33824;51.600;5.718;2023-12-20T05:44:55;17.58;;;2.72;;
48052;SDS011;33824;51.600;5.718;2023-12-20T05:47:21;23.17;;;2.58;;
48052;SDS011;33824;51.600;5.718;2023-12-20T05:49:46;20.25;;;2.67;;
48052;SDS011;33824;51.600;5.718;2023-12-20T05:52:12;24.67;;;3.40;;
48052;SDS011;33824;51.600;5.718;2023-12-20T05:54:38;19.88;;;3.08;;
48052;SDS011;33824;51.600;5.718;2023-12-20T05:57:03;20.63;;;3.40;;
48052;SDS011;33824;51.600;5.718;2023-12-20T05:59:29;16.33;;;3.10;;
48052;SDS011;33824;51.600;5.718;2023-12-20T06:01:55;22.20;;;3.13;;
48052;SDS011;33824;51.600;5.718;2023-12-20T06:04:20;19.38;;;3.40;;
48052;SDS011;33824;51.600;5.718;2023-12-20T06:06:46;31.30;;;3.47;;
48052;SDS011;33824;51.600;5.718;2023-12-20T06:09:11;25.77;;;3.53;;
48052;SDS011;33824;51.600;5.718;2023-12-20T06:11:37;18.83;;;3.15;;
48052;SDS011;33824;51.600;5.718;2023-12-20T06:14:02;23.67;;;3.22;;
48052;SDS011;33824;51.600;5.718;2023-12-20T06:16:28;28.38;;;2.88;;
48052;SDS011;33824;51.600;5.718;2023-12-20T06:18:53;17.20;;;2.30;;
48052;SDS011;33824;51.600;5.718;2023-12-20T06:21:19;22.88;;;2.92;;
48052;SDS011;33824;51.600;5.718;2023-12-20T06:23:45;24.48;;;2.83;;
48052;SDS011;33824;51.600;5.718;2023-12-20T06:26:10;10.57;;;1.90;;
48052;SDS011;33824;51.600;5.718;2023-12-20T06:28:36;13.27;;;2.63;;
48052;SDS011;33824;51.600;5.718;2023-12-20T06:31:01;18.98;;;2.92;;
48052;SDS011;33824;51.600;5.718;2023-12-20T06:33:28;13.68;;;2.33;;
48052;SDS011;33824;51.600;5.718;2023-12-20T06:35:54;22.10;;;2.95;;
48052;SDS011;33824;51.600;5.718;2023-12-20T06:38:20;25.17;;;3.72;;
48052;SDS011;33824;51.600;5.718;2023-12-20T06:40:45;20.85;;;2.72;;
48052;SDS011;33824;51.600;5.718;2023-12-20T06:43:12;15.10;;;2.75;;
48052;SDS011;33824;51.600;5.718;2023-12-20T06:45:38;24.58;;;3.08;;
48052;SDS011;33824;51.600;5.718;2023-12-20T06:48:04;18.20;;;3.25;;
48052;SDS011;33824;51.600;5.718;2023-12-20T06:50:30;16.67;;;2.63;;
48052;SDS011;33824;51.600;5.718;2023-12-20T06:52:56;23.23;;;2.90;;
48052;SDS011;33824;51.600;5.718;2023-12-20T06:55:22;17.40;;;3.40;;
48052;SDS011;33824;51.600;5.718;2023-12-20T06:57:47;18.20;;;3.40;;
48052;SDS011;33824;51.600;5.718;2023-12-20T07:00:13;23.45;;;3.10;;
48052;SDS011;33824;51.600;5.718;2023-12-20T07:02:39;25.77;;;3.97;;
48052;SDS011;33824;51.600;5.718;2023-12-20T07:05:04;27.23;;;3.00;;
48052;SDS011;33824;51.600;5.718;2023-12-20T07:07:30;20.55;;;3.92;;
48052;SDS011;33824;51.600;5.718;2023-12-20T07:09:56;18.35;;;3.33;;
48052;SDS011;33824;51.600;5.718;2023-12-20T07:12:21;18.85;;;2.90;;
48052;SDS011;33824;51.600;5.718;2023-12-20T07:14:47;32.00;;;4.40;;
48052;SDS011;33824;51.600;5.718;2023-12-20T07:17:12;21.23;;;3.83;;
48052;SDS011;33824;51.600;5.718;2023-12-20T07:19:41;17.02;;;3.35;;
48052;SDS011;33824;51.600;5.718;2023-12-20T07:22:07;26.38;;;5.57;;
48052;SDS011;33824;51.600;5.718;2023-12-20T07:24:33;27.42;;;3.28;;
48052;SDS011;33824;51.600;5.718;2023-12-20T07:26:59;19.70;;;3.50;;
48052;SDS011;33824;51.600;5.718;2023-12-20T07:29:26;24.35;;;3.13;;
48052;SDS011;33824;51.600;5.718;2023-12-20T07:31:52;24.80;;;4.03;;
48052;SDS011;33824;51.600;5.718;2023-12-20T07:34:20;18.42;;;2.97;;
48052;SDS011;33824;51.600;5.718;2023-12-20T07:36:45;21.80;;;4.60;;
48052;SDS011;33824;51.600;5.718;2023-12-20T07:39:11;36.53;;;4.43;;
48052;SDS011;33824;51.600;5.718;2023-12-20T07:41:36;18.75;;;4.07;;
48052;SDS011;33824;51.600;5.718;2023-12-20T07:44:03;18.77;;;3.95;;
48052;SDS011;33824;51.600;5.718;2023-12-20T07:46:29;23.58;;;3.53;;
48052;SDS011;33824;51.600;5.718;2023-12-20T07:48:55;18.92;;;3.47;;
48052;SDS011;33824;51.600;5.718;2023-12-20T07:51:20;22.92;;;4.35;;
48052;SDS011;33824;51.600;5.718;2023-12-20T07:53:46;25.20;;;3.85;;
48052;SDS011;33824;51.600;5.718;2023-12-20T07:56:15;20.50;;;3.20;;
48052;SDS011;33824;51.600;5.718;2023-12-20T07:58:41;16.83;;;2.75;;
48052;SDS011;33824;51.600;5.718;2023-12-20T08:01:07;18.23;;;3.33;;
48052;SDS011;33824;51.600;5.718;2023-12-20T08:03:33;23.48;;;3.53;;
48052;SDS011;33824;51.600;5.718;2023-12-20T08:05:58;15.93;;;3.00;;
48052;SDS011;33824;51.600;5.718;2023-12-20T08:08:25;21.48;;;3.72;;
48052;SDS011;33824;51.600;5.718;2023-12-20T08:10:50;19.35;;;3.08;;
48052;SDS011;33824;51.600;5.718;2023-12-20T08:13:16;26.50;;;3.88;;
48052;SDS011;33824;51.600;5.718;2023-12-20T08:15:41;18.17;;;3.03;;
48052;SDS011;33824;51.600;5.718;2023-12-20T08:18:07;24.60;;;3.67;;
48052;SDS011;33824;51.600;5.718;2023-12-20T08:20:33;25.52;;;4.68;;
48052;SDS011;33824;51.600;5.718;2023-12-20T08:22:58;23.27;;;3.30;;
48052;SDS011;33824;51.600;5.718;2023-12-20T08:25:24;21.75;;;2.88;;
48052;SDS011;33824;51.600;5.718;2023-12-20T08:27:49;23.23;;;3.28;;
48052;SDS011;33824;51.600;5.718;2023-12-20T08:30:15;23.02;;;3.03;;
48052;SDS011;33824;51.600;5.718;2023-12-20T08:32:43;16.95;;;3.75;;
48052;SDS011;33824;51.600;5.718;2023-12-20T08:35:08;22.00;;;3.38;;
48052;SDS011;33824;51.600;5.718;2023-12-20T08:37:34;18.77;;;3.17;;
48052;SDS011;33824;51.600;5.718;2023-12-20T08:40:00;22.08;;;3.53;;
48052;SDS011;33824;51.600;5.718;2023-12-20T08:42:26;13.82;;;2.45;;
48052;SDS011;33824;51.600;5.718;2023-12-20T08:44:56;17.80;;;2.97;;
48052;SDS011;33824;51.600;5.718;2023-12-20T08:47:22;32.17;;;4.55;;
48052;SDS011;33824;51.600;5.718;2023-12-20T08:49:48;24.83;;;3.85;;
48052;SDS011;33824;51.600;5.718;2023-12-20T08:52:13;27.20;;;5.22;;
48052;SDS011;33824;51.600;5.718;2023-12-20T08:54:39;28.50;;;3.80;;
48052;SDS011;33824;51.600;5.718;2023-12-20T08:57:05;17.73;;;3.00;;
48052;SDS011;33824;51.600;5.718;2023-12-20T08:59:32;14.55;;;3.08;;
48052;SDS011;33824;51.600;5.718;2023-12-20T09:01:58;17.55;;;3.55;;
48052;SDS011;33824;51.600;5.718;2023-12-20T09:04:23;22.35;;;3.65;;
48052;SDS011;33824;51.600;5.718;2023-12-20T09:06:50;27.30;;;4.18;;
48052;SDS011;33824;51.600;5.718;2023-12-20T09:09:16;25.67;;;4.03;;
48052;SDS011;33824;51.600;5.718;2023-12-20T09:11:41;26.30;;;4.05;;
48052;SDS011;33824;51.600;5.718;2023-12-20T09:14:07;16.02;;;3.00;;
48052;SDS011;33824;51.600;5.718;2023-12-20T09:16:33;15.27;;;3.20;;
48052;SDS011;33824;51.600;5.718;2023-12-20T09:18:58;24.08;;;4.47;;
48052;SDS011;33824;51.600;5.718;2023-12-20T09:21:24;24.20;;;3.05;;
48052;SDS011;33824;51.600;5.718;2023-12-20T09:23:50;17.08;;;3.03;;
48052;SDS011;33824;51.600;5.718;2023-12-20T09:26:16;13.85;;;2.95;;
48052;SDS011;33824;51.600;5.718;2023-12-20T09:28:41;26.05;;;3.83;;
48052;SDS011;33824;51.600;5.718;2023-12-20T09:31:07;16.98;;;2.70;;
48052;SDS011;33824;51.600;5.718;2023-12-20T09:33:33;22.25;;;2.97;;
48052;SDS011;33824;51.600;5.718;2023-12-20T09:35:59;16.58;;;2.95;;
48052;SDS011;33824;51.600;5.718;2023-12-20T09:38:24;21.55;;;4.45;;
48052;SDS011;33824;51.600;5.718;2023-12-20T09:40:50;22.50;;;3.53;;
48052;SDS011;33824;51.600;5.718;2023-12-20T09:43:17;26.05;;;4.82;;
48052;SDS011;33824;51.600;5.718;2023-12-20T09:45:48;25.63;;;3.40;;
48052;SDS011;33824;51.600;5.718;2023-12-20T09:48:17;17.67;;;4.43;;
48052;SDS011;33824;51.600;5.718;2023-12-20T09:50:44;19.15;;;2.75;;
48052;SDS011;33824;51.600;5.718;2023-12-20T09:53:09;21.33;;;2.47;;
48052;SDS011;33824;51.600;5.718;2023-12-20T09:55:40;18.23;;;2.78;;
48052;SDS011;33824;51.600;5.718;2023-12-20T09:58:06;18.30;;;4.20;;
48052;SDS011;33824;51.600;5.718;2023-12-20T10:00:34;21.15;;;3.63;;
48052;SDS011;33824;51.600;5.718;2023-12-20T10:03:00;18.73;;;3.40;;
48052;SDS011;33824;51.600;5.718;2023-12-20T10:05:28;22.63;;;3.72;;
48052;SDS011;33824;51.600;5.718;2023-12-20T10:07:54;21.88;;;3.92;;
48052;SDS011;33824;51.600;5.718;2023-12-20T10:10:20;17.20;;;3.33;;
48052;SDS011;33824;51.600;5.718;2023-12-20T10:13:00;19.48;;;3.25;;
48052;SDS011;33824;51.600;5.718;2023-12-20T10:15:32;16.48;;;2.95;;
48052;SDS011;33824;51.600;5.718;2023-12-20T10:17:58;21.90;;;3.00;;
48052;SDS011;33824;51.600;5.718;2023-12-20T10:20:24;20.33;;;3.13;;
48052;SDS011;33824;51.600;5.718;2023-12-20T10:22:51;18.38;;;3.60;;
48052;SDS011;33824;51.600;5.718;2023-12-20T10:25:19;27.50;;;3.63;;
48052;SDS011;33824;51.600;5.718;2023-12-20T10:27:46;17.13;;;3.33;;
48052;SDS011;33824;51.600;5.718;2023-12-20T10:30:13;22.92;;;4.68;;
48052;SDS011;33824;51.600;5.718;2023-12-20T10:32:39;23.00;;;2.90;;
48052;SDS011;33824;51.600;5.718;2023-12-20T10:35:06;27.13;;;4.45;;
48052;SDS011;33824;51.600;5.718;2023-12-20T10:37:35;25.17;;;3.90;;
48052;SDS011;33824;51.600;5.718;2023-12-20T10:40:03;19.10;;;2.88;;
48052;SDS011;33824;51.600;5.718;2023-12-20T10:42:32;17.40;;;3.28;;
48052;SDS011;33824;51.600;5.718;2023-12-20T10:45:01;21.48;;;3.17;;
48052;SDS011;33824;51.600;5.718;2023-12-20T10:47:27;21.10;;;3.28;;
48052;SDS011;33824;51.600;5.718;2023-12-20T10:49:53;17.13;;;2.92;;
48052;SDS011;33824;51.600;5.718;2023-12-20T10:52:19;22.88;;;3.90;;
48052;SDS011;33824;51.600;5.718;2023-12-20T10:54:48;24.33;;;3.55;;
48052;SDS011;33824;51.600;5.718;2023-12-20T10:57:14;18.17;;;2.95;;
48052;SDS011;33824;51.600;5.718;2023-12-20T10:59:43;19.50;;;2.80;;
48052;SDS011;33824;51.600;5.718;2023-12-20T11:02:12;18.48;;;3.00;;
48052;SDS011;33824;51.600;5.718;2023-12-20T11:04:40;21.55;;;2.70;;
48052;SDS011;33824;51.600;5.718;2023-12-20T11:07:31;22.80;;;3.35;;
48052;SDS011;33824;51.600;5.718;2023-12-20T11:09:59;17.00;;;4.20;;
48052;SDS011;33824;51.600;5.718;2023-12-20T11:12:39;18.95;;;3.08;;
48052;SDS011;33824;51.600;5.718;2023-12-20T11:15:12;20.70;;;2.65;;
48052;SDS011;33824;51.600;5.718;2023-12-20T11:17:38;17.27;;;2.78;;
48052;SDS011;33824;51.600;5.718;2023-12-20T11:20:05;14.73;;;2.67;;
48052;SDS011;33824;51.600;5.718;2023-12-20T11:22:31;25.58;;;3.92;;
48052;SDS011;33824;51.600;5.718;2023-12-20T11:24:58;19.88;;;4.00;;
48052;SDS011;33824;51.600;5.718;2023-12-20T11:27:28;17.15;;;3.55;;
48052;SDS011;33824;51.600;5.718;2023-12-20T11:29:56;19.05;;;2.90;;
48052;SDS011;33824;51.600;5.718;2023-12-20T11:34:51;15.43;;;3.05;;
48052;SDS011;33824;51.600;5.718;2023-12-20T11:37:19;14.77;;;3.08;;
48052;SDS011;33824;51.600;5.718;2023-12-20T11:39:45;16.25;;;2.13;;
48052;SDS011;33824;51.600;5.718;2023-12-20T11:42:19;25.55;;;2.90;;
48052;SDS011;33824;51.600;5.718;2023-12-20T11:44:45;19.60;;;3.30;;
48052;SDS011;33824;51.600;5.718;2023-12-20T11:47:12;17.17;;;2.55;;
48052;SDS011;33824;51.600;5.718;2023-12-20T11:49:39;14.77;;;2.63;;
48052;SDS011;33824;51.600;5.718;2023-12-20T11:52:05;18.48;;;2.72;;
48052;SDS011;33824;51.600;5.718;2023-12-20T11:54:31;17.20;;;3.08;;
48052;SDS011;33824;51.600;5.718;2023-12-20T11:56:57;20.92;;;2.67;;
48052;SDS011;33824;51.600;5.718;2023-12-20T11:59:23;14.88;;;2.53;;
48052;SDS011;33824;51.600;5.718;2023-12-20T12:01:48;17.60;;;2.47;;
48052;SDS011;33824;51.600;5.718;2023-12-20T12:04:15;19.85;;;3.38;;
48052;SDS011;33824;51.600;5.718;2023-12-20T12:06:42;19.45;;;3.75;;
48052;SDS011;33824;51.600;5.718;2023-12-20T12:09:08;16.55;;;2.88;;
48052;SDS011;33824;51.600;5.718;2023-12-20T12:11:34;16.50;;;2.80;;
48052;SDS011;33824;51.600;5.718;2023-12-20T12:14:00;17.95;;;3.35;;
48052;SDS011;33824;51.600;5.718;2023-12-20T12:16:26;17.75;;;2.95;;
48052;SDS011;33824;51.600;5.718;2023-12-20T12:18:55;22.17;;;3.00;;
48052;SDS011;33824;51.600;5.718;2023-12-20T12:23:50;23.48;;;3.45;;
48052;SDS011;33824;51.600;5.718;2023-12-20T12:26:16;9.82;;;3.00;;
48052;SDS011;33824;51.600;5.718;2023-12-20T12:28:42;23.98;;;4.20;;
48052;SDS011;33824;51.600;5.718;2023-12-20T12:31:08;17.95;;;3.03;;
48052;SDS011;33824;51.600;5.718;2023-12-20T12:33:40;12.15;;;2.72;;
48052;SDS011;33824;51.600;5.718;2023-12-20T12:36:06;18.63;;;2.50;;
48052;SDS011;33824;51.600;5.718;2023-12-20T12:38:33;13.23;;;2.05;;
48052;SDS011;33824;51.600;5.718;2023-12-20T12:40:59;20.70;;;3.10;;
48052;SDS011;33824;51.600;5.718;2023-12-20T12:43:25;19.80;;;3.53;;
48052;SDS011;33824;51.600;5.718;2023-12-20T12:45:51;22.08;;;3.60;;
48052;SDS011;33824;51.600;5.718;2023-12-20T12:48:17;18.95;;;2.83;;
48052;SDS011;33824;51.600;5.718;2023-12-20T12:50:42;19.95;;;2.67;;
48052;SDS011;33824;51.600;5.718;2023-12-20T12:53:09;24.90;;;3.15;;
48052;SDS011;33824;51.600;5.718;2023-12-20T12:55:34;21.38;;;3.78;;
48052;SDS011;33824;51.600;5.718;2023-12-20T12:58:01;31.40;;;3.88;;
48052;SDS011;33824;51.600;5.718;2023-12-20T13:00:26;21.13;;;2.67;;
48052;SDS011;33824;51.600;5.718;2023-12-20T13:02:52;15.02;;;2.83;;
48052;SDS011;33824;51.600;5.718;2023-12-20T13:05:18;9.98;;;2.47;;
48052;SDS011;33824;51.600;5.718;2023-12-20T13:07:43;21.67;;;3.22;;
48052;SDS011;33824;51.600;5.718;2023-12-20T13:10:13;22.70;;;3.75;;
48052;SDS011;33824;51.600;5.718;2023-12-20T13:12:42;20.02;;;3.10;;
48052;SDS011;33824;51.600;5.718;2023-12-20T13:15:07;16.88;;;2.45;;
48052;SDS011;33824;51.600;5.718;2023-12-20T13:17:34;13.00;;;2.75;;
48052;SDS011;33824;51.600;5.718;2023-12-20T13:19:59;20.10;;;2.97;;
48052;SDS011;33824;51.600;5.718;2023-12-20T13:22:25;17.20;;;2.88;;
48052;SDS011;33824;51.600;5.718;2023-12-20T13:24:51;15.80;;;2.67;;
48052;SDS011;33824;51.600;5.718;2023-12-20T13:27:16;11.75;;;2.50;;
48052;SDS011;33824;51.600;5.718;2023-12-20T13:29:42;20.20;;;3.17;;
48052;SDS011;33824;51.600;5.718;2023-12-20T13:32:07;22.40;;;3.60;;
48052;SDS011;33824;51.600;5.718;2023-12-20T13:34:33;11.70;;;2.90;;
48052;SDS011;33824;51.600;5.718;2023-12-20T13:36:58;15.57;;;2.72;;
48052;SDS011;33824;51.600;5.718;2023-12-20T13:39:24;17.77;;;3.83;;
48052;SDS011;33824;51.600;5.718;2023-12-20T13:41:49;13.75;;;3.63;;
48052;SDS011;33824;51.600;5.718;2023-12-20T13:44:18;19.42;;;3.03;;
48052;SDS011;33824;51.600;5.718;2023-12-20T13:46:43;14.52;;;3.03;;
48052;SDS011;33824;51.600;5.718;2023-12-20T13:49:10;18.42;;;2.67;;
48052;SDS011;33824;51.600;5.718;2023-12-20T13:51:37;18.58;;;3.50;;
48052;SDS011;33824;51.600;5.718;2023-12-20T13:54:03;18.42;;;2.65;;
48052;SDS011;33824;51.600;5.718;2023-12-20T13:56:29;15.48;;;2.97;;
48052;SDS011;33824;51.600;5.718;2023-12-20T13:58:55;16.40;;;3.15;;
48052;SDS011;33824;51.600;5.718;2023-12-20T14:01:21;15.70;;;3.47;;
48052;SDS011;33824;51.600;5.718;2023-12-20T14:03:46;12.63;;;2.63;;
48052;SDS011;33824;51.600;5.718;2023-12-20T14:06:12;25.50;;;3.75;;
48052;SDS011;33824;51.600;5.718;2023-12-20T14:08:39;28.05;;;4.40;;
48052;SDS011;33824;51.600;5.718;2023-12-20T14:11:04;23.27;;;3.75;;
48052;SDS011;33824;51.600;5.718;2023-12-20T14:13:30;25.48;;;3.45;;
48052;SDS011;33824;51.600;5.718;2023-12-20T14:15:56;29.00;;;3.38;;
48052;SDS011;33824;51.600;5.718;2023-12-20T14:18:23;21.88;;;4.07;;
48052;SDS011;33824;51.600;5.718;2023-12-20T14:20:49;18.63;;;3.05;;
48052;SDS011;33824;51.600;5.718;2023-12-20T14:23:15;14.98;;;2.75;;
48052;SDS011;33824;51.600;5.718;2023-12-20T14:25:41;16.58;;;3.65;;
48052;SDS011;33824;51.600;5.718;2023-12-20T14:28:07;19.85;;;3.20;;
48052;SDS011;33824;51.600;5.718;2023-12-20T14:30:33;17.00;;;3.03;;
48052;SDS011;33824;51.600;5.718;2023-12-20T14:33:00;19.52;;;3.90;;
48052;SDS011;33824;51.600;5.718;2023-12-20T14:35:25;20.63;;;3.10;;
48052;SDS011;33824;51.600;5.718;2023-12-20T14:37:53;18.55;;;3.25;;